Weather in selectable METAR weather stations

1) Select the Continent / Group:

[Europe]  [Asia]  [Africa]  [North America]  [South America]  
[Central America and Caribbean]  [Oceania]  [Antarctica]  
2) Select the Weather station (City):


METAR = EFHK 310950Z 01003KT 340V040 9999 FEW002 BKN040 05/04 Q1024 NOSIG

STATIONEFHK
NAMEHelsinki/Vantaa Arpt, UU, FI
OBSERVED31.10.2020 11:50 (31.10.2020 09:50 UTC), 20 min ago
TEMPERATURE5.0°C ( 41°F)
WINDCHILL3.9 °C (39 °F)
WINDN (10 degrees) at 3 MPH (3 knots; 1.5 m/s)
HUMIDITY93%
PRESSURE1024 hPa
Click here to search the weather station or to give the station identifier
(four-character ICAO Location Indicator) for weather data.